• Join FlightAware (Why Join?)
  • Login
  • US Flag 
04:07AM EST


 

Airport Tracker/Info


-or-


 

Live Flight TrackerFlight Track Log ✈ AAY883 ✈ 26-Jun-2014 ✈ KGRR - KPIE

Flight Track Log - Related Links

Times and Time Zones

All times are in EDT time to prevent confusion due to time zone crossing. See the AAY883 flight status page for this flight to view local times or setup timezone preferences in your user account.

Time Position Orientation Groundspeed Altitude Reporting Facility
EDT Latitude Longitude Course Direction KTS MPH feet Rate Location/Type
07:52PM 42.4400 -85.4391 172° South 365 420 13,200  Level FlightAware ADS-B (KMDW)
07:52PM 42.3797 -85.4282 173° South 373 429 14,500 2,100 Climbing FlightAware ADS-B (KMDW)
07:53PM 42.2755 -85.4098 173° South 387 445 16,600 1,920 Climbing FlightAware ADS-B (KMDW)
07:54PM 42.2111 -85.4037 185° South 399 459 17,600 1,080 Climbing FlightAware ADS-B (KMDW)
07:55PM 42.1361 -85.4172 188° South 396 456 18,000 1,080 Climbing FlightAware ADS-B (KMDW)
07:56PM 42.0235 -85.4280 170° South 412 474 19,500 1,560 Climbing FlightAware ADS-B (KMDW)
07:56PM 41.9544 -85.4113 170° South 417 480 20,700 1,680 Climbing FlightAware ADS-B (KMDW)
07:57PM 41.8716 -85.3922 170° South 423 487 21,800 1,800 Climbing FlightAware ADS-B (KMDW)
07:58PM 41.8053 -85.3769 170° South 429 494 22,900 1,500 Climbing FlightAware ADS-B (KMDW)
07:58PM 41.7308 -85.3596 170° South 435 501 23,900 1,200 Climbing FlightAware ADS-B (KMDW)
07:59PM 41.6354 -85.3376 170° South 448 516 24,600 1,260 Climbing FlightAware ADS-B (KMDW)
08:00PM 41.5730 -85.3232 170° South 450 518 25,400 720 Climbing FlightAware ADS-B (KMDW)
08:05PM 40.8984 -85.0953 154° Southeast 480 552 29,100 720 Climbing FlightAware ADS-B
08:06PM 40.8301 -85.0510 156° South 484 557 29,700 960 Climbing FlightAware ADS-B
08:06PM 40.8005 -85.0365 167° South 483 556 29,900 720 Climbing FlightAware ADS-B
08:06PM 40.7243 -85.0256 177° South 485 558 30,300 1,200 Climbing FlightAware ADS-B
08:08PM 40.4982 -85.0049 176° South 477 549 32,700 1,380 Climbing FlightAware ADS-B
08:09PM 40.4460 -85.0001 176° South 472 543 33,500 1,200 Climbing FlightAware ADS-B
08:09PM 40.3353 -84.9898 176° South 472 543 34,200 840 Climbing FlightAware ADS-B
08:10PM 40.1986 -84.9783 176° South 477 549 35,000 900 Climbing FlightAware ADS-B
08:11PM 40.1415 -84.9733 176° South 474 545 35,600 780 Climbing FlightAware ADS-B
08:12PM 40.0438 -84.9646 176° South 467 537 36,000 600 Climbing FlightAware ADS-B
08:12PM 39.9508 -84.9561 176° South 469 540 36,600 240 Climbing Chicago Center
08:15PM 39.5578 -84.9214 176° South 458 527 37,000 60 Climbing FlightAware ADS-B (KCVG)
08:17PM 39.3390 -84.9019 176° South 454 522 37,000  Level FlightAware ADS-B
08:18PM 39.1890 -84.8886 176° South 450 518 37,000  Level FlightAware ADS-B (KCVG)
08:19PM 39.0935 -84.8802 176° South 450 518 37,000  Level FlightAware ADS-B
08:20PM 39.0254 -84.8743 176° South 451 519 37,000  Level FlightAware ADS-B (KCVG)
08:20PM 38.9689 -84.8694 176° South 453 521 37,000  Level FlightAware ADS-B
08:21PM 38.8934 -84.8629 176° South 453 521 37,000  Level FlightAware ADS-B (KCVG)
08:21PM 38.8244 -84.8569 176° South 452 520 37,000  Level FlightAware ADS-B
08:22PM 38.7489 -84.8504 176° South 450 518 37,000  Level FlightAware ADS-B (KCVG)
08:22PM 38.6803 -84.8443 176° South 446 513 37,000  Level FlightAware ADS-B
08:23PM 38.6107 -84.8383 176° South 444 511 37,000  Level FlightAware ADS-B
08:24PM 38.5260 -84.8310 176° South 444 511 37,000  Level FlightAware ADS-B (KCVG)
08:24PM 38.4565 -84.8251 176° South 446 513 37,000  Level FlightAware ADS-B (KCVG)
08:25PM 38.3650 -84.8171 176° South 448 516 37,000  Level FlightAware ADS-B
08:25PM 38.2966 -84.8113 176° South 449 517 37,000  Level FlightAware ADS-B (KCVG)
08:26PM 38.1699 -84.8005 176° South 451 519 37,000  Level FlightAware ADS-B (KCVG)
08:27PM 38.0849 -84.7932 176° South 450 518 37,000 60 Level FlightAware ADS-B (KCVG)
08:28PM 38.0126 -84.7870 176° South 448 516 37,100  Climbing FlightAware ADS-B (KCVG)
08:29PM 37.9242 -84.7795 176° South 444 511 37,000 -120 Descending FlightAware ADS-B
08:29PM 37.8266 -84.7711 176° South 443 510 37,000  Level FlightAware ADS-B (KCVG)
08:30PM 37.7452 -84.7643 176° South 441 507 37,000  Level FlightAware ADS-B
08:31PM 37.6002 -84.7520 176° South 439 505 37,000  Level FlightAware ADS-B
08:32PM 37.4823 -84.7421 176° South 440 506 37,000  Level FlightAware ADS-B
08:33PM 37.4095 -84.7360 176° South 440 506 37,000  Level FlightAware ADS-B
08:34PM 37.2326 -84.7214 176° South 441 507 37,000  Level FlightAware ADS-B
08:37PM 36.9179 -84.6951 176° South 447 514 37,000  Level FlightAware ADS-B
08:40PM 36.5132 -84.6620 176° South 453 521 37,000  Level FlightAware ADS-B
08:41PM 36.3930 -84.6522 176° South 451 519 37,000  Level FlightAware ADS-B
08:42PM 36.2526 -84.6407 176° South 446 513 37,000  Level FlightAware ADS-B
08:45PM 36.7143 -84.6784 176° South 442 509 37,000  Level FlightAware ADS-B (KMDQ)
08:46PM 35.7536 -84.5994 176° South 446 513 37,000  Level Indianapolis Center
08:51PM 35.0663 -84.5462 176° South 436 502 37,000  Level FlightAware ADS-B (KDZJ)
08:52PM 34.9857 -84.5398 176° South 436 502 37,000  Level FlightAware ADS-B (KDZJ)
08:53PM 34.9017 -84.5332 176° South 436 502 37,000  Level FlightAware ADS-B (KDZJ)
08:53PM 34.8211 -84.5270 176° South 436 502 37,000  Level FlightAware ADS-B (KDZJ)
08:54PM 34.7396 -84.5206 176° South 437 503 37,000  Level FlightAware ADS-B (KDZJ)
08:55PM 34.6559 -84.5140 176° South 436 502 37,000  Level FlightAware ADS-B (KDZJ)
08:55PM 34.5752 -84.5077 176° South 436 502 37,000  Level FlightAware ADS-B (KDZJ)
08:56PM 34.4920 -84.5012 176° South 436 502 37,000  Level FlightAware ADS-B (KDZJ)
08:57PM 34.4105 -84.4949 176° South 437 503 37,000  Level FlightAware ADS-B (KDZJ)
08:57PM 34.3273 -84.4884 176° South 439 505 37,000  Level FlightAware ADS-B (KDZJ)
08:58PM 34.2453 -84.4821 176° South 449 517 37,000  Level FlightAware ADS-B (KDZJ)
08:59PM 34.1612 -84.4756 176° South 449 517 37,000  Level FlightAware ADS-B (KDZJ)
08:59PM 34.0799 -84.4694 176° South 448 516 37,000  Level FlightAware ADS-B (KDZJ)
09:00PM 33.9968 -84.4630 176° South 449 517 37,000  Level FlightAware ADS-B (KDZJ)
09:01PM 33.9157 -84.4567 176° South 449 517 37,000  Level FlightAware ADS-B (KDZJ)
09:01PM 33.8472 -84.4515 176° South 449 517 37,000  Level FlightAware ADS-B (KDZJ)
09:03PM 33.7081 -84.4433 176° South 455 524 37,000  Level Atlanta Center
09:05PM 33.4450 -84.4222 176° South 460 529 37,000  Level Atlanta Center
09:06PM 33.3242 -84.4042 173° South 460 529 37,000  Level Atlanta Center
09:07PM 33.1989 -84.3889 174° South 460 529 37,000  Level Atlanta Center
09:08PM 33.0758 -84.3686 172° South 455 524 37,000  Level Atlanta Center
09:10PM 32.8253 -84.3306 173° South 455 524 37,000  Level Atlanta Center
09:11PM 32.7147 -84.3153 173° South 455 524 37,000  Level Atlanta Center
09:12PM 32.5897 -84.2953 172° South 455 524 37,000  Level Atlanta Center
09:13PM 32.4644 -84.2778 173° South 455 524 37,000  Level Atlanta Center
09:14PM 32.3392 -84.2578 172° South 455 524 37,000  Level Atlanta Center
09:15PM 32.2161 -84.2403 173° South 455 524 37,000  Level Atlanta Center
09:16PM 32.0908 -84.2203 172° South 455 524 37,000  Level Atlanta Center
09:17PM 31.9636 -84.2028 173° South 455 524 37,000  Level Atlanta Center
09:18PM 31.8364 -84.1839 173° South 452 520 37,000  Level Jacksonville Center
09:26PM 30.8353 -84.0329 164° South 458 527 37,000  Level FlightAware ADS-B (KTLH)
09:26PM 30.7734 -84.0119 164° South 458 527 37,000  Level FlightAware ADS-B (KTLH)
09:27PM 30.6928 -83.9854 164° South 457 526 37,000  Level FlightAware ADS-B (KTLH)
09:27PM 30.6307 -83.9650 164° South 457 526 37,000  Level FlightAware ADS-B (KTLH)
09:28PM 30.5692 -83.9448 164° South 457 526 37,000  Level FlightAware ADS-B (KTLH)
09:28PM 30.5175 -83.9212 154° Southeast 459 528 37,000  Level FlightAware ADS-B (KTLH)
09:29PM 30.4532 -83.8849 154° Southeast 459 528 37,000  Level FlightAware ADS-B (KTLH)
09:29PM 30.3965 -83.8523 154° Southeast 457 526 37,000  Level FlightAware ADS-B (KTLH)
09:30PM 30.3398 -83.8199 154° Southeast 456 525 37,000 -120 Level FlightAware ADS-B (KTLH)
09:30PM 30.2626 -83.7763 154° Southeast 457 526 36,900 -120 Descending FlightAware ADS-B (KTLH)
09:31PM 30.2067 -83.7452 154° Southeast 463 533 36,900 60 Level FlightAware ADS-B (KTLH)
09:32PM 30.1350 -83.7055 155° Southeast 466 536 37,000 -120 Climbing FlightAware ADS-B (KTLH)
09:32PM 30.0530 -83.6616 155° Southeast 467 537 36,800 -480 Descending FlightAware ADS-B (KTLH)
09:33PM 29.9335 -83.5973 155° Southeast 462 532 36,200 -840 Descending FlightAware ADS-B (KTLH)
09:35PM 29.7658 -83.5314 155° Southeast 464 534 34,800 -960 Descending Jacksonville Center
09:36PM 29.6364 -83.5281 179° South 455 524 33,900 -900 Descending Jacksonville Center
09:37PM 29.5031 -83.5203 177° South 468 539 33,000 -540 Descending Jacksonville Center
09:38PM 29.3756 -83.5169 179° South 468 539 32,900 -60 Descending Jacksonville Center
09:39PM 29.2442 -83.5114 178° South 468 539 32,900 -1,200 Level Jacksonville Center
09:40PM 29.1297 -83.4558 157° South 453 521 30,600 -2,820 Descending Jacksonville Center
09:41PM 29.0192 -83.3864 151° Southeast 440 506 27,300 -1,860 Descending Jacksonville Center
09:42PM 28.9150 -83.3172 150° Southeast 447 514 26,900 -480 Descending Jacksonville Center
09:43PM 28.8111 -83.2503 151° Southeast 434 499 26,400 -1,980 Descending Jacksonville Center
09:44PM 28.7067 -83.1861 152° Southeast 429 494 23,000 -3,660 Descending Jacksonville Center
09:45PM 28.5983 -83.1147 150° Southeast 429 494 19,100 -3,720 Descending Jacksonville Center
09:46PM 28.4333 -83.0167 152° Southeast 431 496 13,700 -2,820 Descending Tampa TRACON
09:47PM 28.3500 -82.9667 152° Southeast 395 455 12,400 -1,140 Descending Tampa TRACON
09:48PM 28.3158 -82.9456 151° Southeast 387 445 12,100 -1,140 Descending Miami Center
09:49PM 28.2325 -82.9042 156° South 328 377 10,700 -1,920 Descending Miami Center
09:49PM 28.1667 -82.8667 153° Southeast 308 354 8,900 -2,280 Descending Tampa TRACON
09:50PM 28.1000 -82.8333 156° South 299 344 7,200 -1,740 Descending Tampa TRACON
09:51PM 28.0167 -82.8000 161° South 292 336 5,600 -1,920 Descending Tampa TRACON
09:52PM 27.9500 -82.7833 168° South 278 320 3,600 -1,680 Descending Tampa TRACON
09:53PM 27.8833 -82.7667 168° South 246 283 2,600 -840 Descending Tampa TRACON
09:54PM 27.8333 -82.7667 180° South 217 250 2,100 -480 Descending Tampa TRACON
09:55PM 27.8167 -82.7333 119° Southeast 161 185 1,700 -480 Descending Tampa TRACON
09:56PM 27.8333 -82.6833 69° East 131 151 1,200 -540 Descending Tampa TRACON
09:57PM 27.8667 -82.6833 360° North 128 147 700 -540 Descending Tampa TRACON